createdAt,value
2023-03-16T00:00:22.879Z,6.57
2023-03-16T00:02:50.349Z,6.35
2023-03-16T00:05:17.894Z,6.65
2023-03-16T00:07:45.372Z,5.88
2023-03-16T00:10:13.404Z,5.90
2023-03-16T00:12:43.685Z,5.70
2023-03-16T00:15:12.805Z,7.05
2023-03-16T00:17:40.211Z,5.95
2023-03-16T00:20:08.481Z,5.50
2023-03-16T00:22:35.904Z,6.60
2023-03-16T00:25:04.620Z,6.07
2023-03-16T00:27:32.164Z,6.05
2023-03-16T00:29:59.737Z,5.95
2023-03-16T00:32:29.966Z,5.88
2023-03-16T00:34:58.375Z,6.10
2023-03-16T00:37:28.178Z,6.20
2023-03-16T00:39:56.534Z,6.10
2023-03-16T00:42:30.001Z,7.07
2023-03-16T00:45:00.041Z,7.30
2023-03-16T00:47:31.208Z,6.80
2023-03-16T00:50:00.132Z,6.53
2023-03-16T00:52:30.444Z,7.32
2023-03-16T00:54:58.690Z,7.28
2023-03-16T00:57:30.261Z,6.97
2023-03-16T00:59:58.240Z,7.68
2023-03-16T01:02:25.956Z,7.22
2023-03-16T01:04:54.915Z,6.82
2023-03-16T01:07:23.085Z,7.85
2023-03-16T01:09:51.462Z,7.38
2023-03-16T01:12:19.980Z,6.97
2023-03-16T01:14:47.920Z,6.43
2023-03-16T01:17:17.690Z,7.93
2023-03-16T01:19:46.412Z,6.55
2023-03-16T01:22:15.046Z,6.00
2023-03-16T01:24:45.377Z,6.35
2023-03-16T01:27:14.560Z,6.35
2023-03-16T01:29:44.571Z,6.90
2023-03-16T01:32:13.290Z,6.35
2023-03-16T01:34:41.625Z,6.47
2023-03-16T01:37:10.477Z,6.43
2023-03-16T01:39:51.554Z,6.55
2023-03-16T01:42:19.508Z,5.50
2023-03-16T01:45:06.677Z,5.60
2023-03-16T01:47:38.560Z,6.18
2023-03-16T01:50:10.218Z,5.45
2023-03-16T01:52:40.722Z,5.70
2023-03-16T01:55:13.312Z,5.60
2023-03-16T01:57:45.262Z,5.45
2023-03-16T02:00:23.692Z,6.43
2023-03-16T02:03:18.672Z,4.93
2023-03-16T02:06:23.697Z,5.85
2023-03-16T02:08:57.107Z,5.22
2023-03-16T02:11:25.818Z,5.15
2023-03-16T02:14:09.434Z,4.80
2023-03-16T02:19:12.213Z,5.22
2023-03-16T02:22:14.095Z,5.43
2023-03-16T02:24:42.423Z,5.50
2023-03-16T02:27:14.055Z,5.80
2023-03-16T02:30:03.887Z,5.40
2023-03-16T02:32:39.960Z,4.82
2023-03-16T02:35:09.799Z,5.20
2023-03-16T02:37:37.372Z,5.10
2023-03-16T02:40:35.505Z,4.72
2023-03-16T02:43:18.863Z,5.15
2023-03-16T02:46:00.864Z,4.22
2023-03-16T02:48:56.008Z,4.60
2023-03-16T02:51:23.569Z,5.05
2023-03-16T02:53:51.152Z,4.55
2023-03-16T02:56:19.983Z,4.80
2023-03-16T02:58:47.785Z,5.32
2023-03-16T03:01:18.686Z,4.30
2023-03-16T03:03:46.175Z,4.55
2023-03-16T03:06:13.550Z,4.88
2023-03-16T03:08:42.728Z,4.90
2023-03-16T03:11:10.564Z,5.10
2023-03-16T03:13:39.337Z,4.30
2023-03-16T03:16:13.423Z,4.35
2023-03-16T03:18:41.264Z,5.35
2023-03-16T03:21:08.823Z,4.68
2023-03-16T03:23:36.369Z,3.80
2023-03-16T03:26:04.439Z,4.90
2023-03-16T03:28:34.379Z,4.30
2023-03-16T03:31:02.018Z,4.57
2023-03-16T03:33:30.298Z,4.90
2023-03-16T03:35:58.911Z,4.78
2023-03-16T03:38:31.001Z,4.03
2023-03-16T03:40:59.679Z,4.32
2023-03-16T03:43:31.549Z,3.95
2023-03-16T03:46:01.113Z,4.25
2023-03-16T03:48:29.591Z,4.55
2023-03-16T03:50:58.089Z,4.40
2023-03-16T03:53:25.883Z,4.47
2023-03-16T03:56:26.660Z,4.93
2023-03-16T03:58:54.431Z,4.05
2023-03-16T04:01:49.152Z,3.97
2023-03-16T04:04:16.864Z,4.57
2023-03-16T04:06:44.293Z,4.40
2023-03-16T04:09:12.448Z,4.57
2023-03-16T04:11:40.343Z,4.63
2023-03-16T04:14:07.900Z,4.82
2023-03-16T04:16:37.901Z,4.22
2023-03-16T04:19:05.531Z,4.40
2023-03-16T04:21:33.117Z,4.80
2023-03-16T04:24:04.066Z,4.03
2023-03-16T04:26:35.076Z,5.15
2023-03-16T04:29:04.319Z,4.07
2023-03-16T04:31:32.916Z,4.13
2023-03-16T04:34:02.563Z,4.68
2023-03-16T04:36:30.422Z,4.20
2023-03-16T04:38:57.938Z,3.90
2023-03-16T04:41:26.437Z,4.18
2023-03-16T04:43:59.705Z,5.03
2023-03-16T04:46:29.685Z,7.22
2023-03-16T04:48:59.899Z,9.38
2023-03-16T04:51:29.157Z,12.70
2023-03-16T04:54:06.377Z,13.93
2023-03-16T04:56:36.387Z,27.13
2023-03-16T04:59:08.942Z,19.65
2023-03-16T05:01:46.096Z,20.00
2023-03-16T05:04:19.549Z,18.20
2023-03-16T05:06:49.028Z,20.13
2023-03-16T05:09:18.302Z,19.10
2023-03-16T05:11:45.827Z,20.15
2023-03-16T05:14:13.999Z,18.98
2023-03-16T05:16:54.665Z,19.60
2023-03-16T05:19:23.364Z,16.48
2023-03-16T05:21:51.299Z,19.77
2023-03-16T05:24:19.118Z,16.30
2023-03-16T05:26:46.561Z,17.77
2023-03-16T05:29:16.840Z,16.15
2023-03-16T05:31:47.868Z,15.13
2023-03-16T05:34:18.369Z,15.60
2023-03-16T05:36:46.110Z,22.35
2023-03-16T05:39:16.558Z,21.08
2023-03-16T05:41:48.161Z,20.98
2023-03-16T05:44:25.531Z,26.30
2023-03-16T05:47:13.894Z,21.35
2023-03-16T05:49:45.919Z,19.20
2023-03-16T05:52:25.980Z,19.05
2023-03-16T05:54:55.535Z,18.73
2023-03-16T05:57:23.826Z,20.08
2023-03-16T05:59:53.085Z,20.35
2023-03-16T06:02:22.626Z,17.80
2023-03-16T06:04:50.201Z,11.43
2023-03-16T06:07:17.731Z,10.32
2023-03-16T06:09:45.938Z,11.95
2023-03-16T06:12:16.548Z,6.55
2023-03-16T06:14:44.844Z,5.93
2023-03-16T06:17:12.533Z,12.52
2023-03-16T06:19:42.201Z,12.10
2023-03-16T06:22:10.149Z,8.18
2023-03-16T06:24:38.857Z,10.25
2023-03-16T06:27:06.498Z,7.85
2023-03-16T06:29:44.336Z,6.03
2023-03-16T06:32:12.424Z,8.48
2023-03-16T06:34:41.797Z,11.82
2023-03-16T06:37:09.811Z,6.72
2023-03-16T06:39:37.665Z,9.00
2023-03-16T06:42:05.629Z,10.38
2023-03-16T06:44:33.615Z,8.00
2023-03-16T06:47:08.667Z,9.05
2023-03-16T06:49:36.296Z,10.77
2023-03-16T06:52:10.737Z,11.02
2023-03-16T06:54:38.405Z,8.98
2023-03-16T06:57:06.444Z,12.18
2023-03-16T06:59:34.647Z,5.40
2023-03-16T07:02:02.209Z,3.08
2023-03-16T07:04:30.546Z,3.05
2023-03-16T07:06:58.250Z,3.13
2023-03-16T07:09:27.661Z,2.25
2023-03-16T07:11:55.226Z,2.03
2023-03-16T07:14:24.833Z,2.15
2023-03-16T07:16:54.289Z,1.98
2023-03-16T07:19:23.545Z,2.50
2023-03-16T07:21:52.173Z,2.20
2023-03-16T07:24:22.710Z,2.30
2023-03-16T07:26:50.633Z,1.88
2023-03-16T07:29:26.215Z,2.20
2023-03-16T07:31:54.523Z,2.85
2023-03-16T07:34:26.885Z,2.88
2023-03-16T07:36:58.281Z,2.60
2023-03-16T07:39:28.884Z,2.55
2023-03-16T07:42:04.385Z,2.38
2023-03-16T07:44:47.440Z,1.92
2023-03-16T07:47:15.115Z,2.65
2023-03-16T07:49:44.901Z,2.00
2023-03-16T07:52:15.363Z,1.65
2023-03-16T07:54:44.058Z,1.85
2023-03-16T07:57:12.862Z,1.70
2023-03-16T07:59:43.430Z,1.60
2023-03-16T08:02:16.412Z,1.35
2023-03-16T08:04:44.734Z,1.77
2023-03-16T08:07:15.910Z,2.42
2023-03-16T08:10:01.745Z,2.40
2023-03-16T08:12:38.157Z,1.75
2023-03-16T08:15:06.457Z,1.95
2023-03-16T08:17:34.463Z,2.35
2023-03-16T08:20:10.787Z,2.15
2023-03-16T08:25:10.576Z,1.45
2023-03-16T08:27:40.412Z,1.50
2023-03-16T08:30:11.781Z,1.50
2023-03-16T08:32:43.617Z,1.63
2023-03-16T08:35:14.229Z,1.70
2023-03-16T08:37:42.978Z,1.98
2023-03-16T08:40:17.200Z,1.58
2023-03-16T08:42:50.131Z,1.40
2023-03-16T08:45:20.193Z,1.47
2023-03-16T08:47:48.250Z,1.55
2023-03-16T08:50:16.722Z,1.95
2023-03-16T08:52:44.256Z,1.63
2023-03-16T08:55:11.808Z,1.83
2023-03-16T08:57:39.471Z,2.25
2023-03-16T09:00:14.861Z,1.67
2023-03-16T09:02:43.471Z,1.50
2023-03-16T09:05:13.182Z,1.40
2023-03-16T09:07:41.430Z,1.80
2023-03-16T09:10:13.369Z,1.83
2023-03-16T09:12:41.095Z,2.28
2023-03-16T09:15:10.361Z,1.63
2023-03-16T09:17:39.359Z,1.67
2023-03-16T09:20:21.865Z,1.58
2023-03-16T09:22:55.270Z,1.35
2023-03-16T09:25:24.383Z,1.77
2023-03-16T09:27:52.849Z,1.50
2023-03-16T09:30:20.856Z,1.50
2023-03-16T09:32:49.235Z,1.40
2023-03-16T09:35:16.969Z,1.90
2023-03-16T09:38:01.179Z,1.65
2023-03-16T09:40:33.557Z,1.50
2023-03-16T09:43:09.361Z,1.63
2023-03-16T09:45:57.763Z,2.00
2023-03-16T09:48:29.874Z,1.80
2023-03-16T09:51:01.065Z,1.50
2023-03-16T09:53:32.140Z,1.98
2023-03-16T09:56:04.221Z,2.50
2023-03-16T09:58:33.159Z,2.10
2023-03-16T10:01:10.018Z,1.98
2023-03-16T10:03:47.151Z,1.80
2023-03-16T10:06:16.261Z,2.28
2023-03-16T10:08:54.345Z,2.40
2023-03-16T10:11:26.891Z,2.75
2023-03-16T10:14:17.710Z,2.28
2023-03-16T10:17:14.607Z,2.10
2023-03-16T10:20:00.253Z,1.95
2023-03-16T10:22:32.282Z,2.30
2023-03-16T10:25:16.474Z,2.10
2023-03-16T10:30:24.860Z,2.30
2023-03-16T10:32:52.846Z,2.22
2023-03-16T10:35:34.753Z,2.38
2023-03-16T10:38:02.331Z,2.17
2023-03-16T10:40:38.809Z,1.95
2023-03-16T10:43:14.181Z,2.30
2023-03-16T10:45:43.185Z,2.22
2023-03-16T10:48:21.260Z,2.65
2023-03-16T10:50:52.223Z,2.75
2023-03-16T10:53:30.160Z,2.20
2023-03-16T10:56:09.704Z,2.50
2023-03-16T10:58:42.648Z,2.10
2023-03-16T11:01:19.055Z,1.40
2023-03-16T11:03:53.330Z,1.67
2023-03-16T11:06:30.950Z,1.55
2023-03-16T11:09:14.899Z,1.90
2023-03-16T11:11:49.664Z,1.90
2023-03-16T11:14:22.431Z,2.10
2023-03-16T11:17:05.878Z,2.38
2023-03-16T11:19:38.941Z,2.33
2023-03-16T11:22:06.698Z,2.47
2023-03-16T11:25:12.305Z,1.90
2023-03-16T11:27:49.309Z,2.20
2023-03-16T11:30:20.559Z,2.60
2023-03-16T11:32:53.576Z,2.83
2023-03-16T11:35:34.142Z,2.53
2023-03-16T11:38:11.303Z,2.20
2023-03-16T11:41:00.376Z,2.10
2023-03-16T11:43:45.081Z,3.05
2023-03-16T11:46:20.850Z,2.55
2023-03-16T11:49:19.232Z,1.77
2023-03-16T11:52:15.515Z,2.22
2023-03-16T11:54:52.034Z,2.20
2023-03-16T11:57:55.970Z,2.55
2023-03-16T12:00:52.937Z,3.10
2023-03-16T12:03:32.459Z,2.47
2023-03-16T12:06:23.067Z,2.75
2023-03-16T12:08:57.692Z,2.85
2023-03-16T12:11:37.009Z,2.50
2023-03-16T12:14:26.781Z,2.05
2023-03-16T12:17:10.202Z,1.90
2023-03-16T12:19:40.531Z,2.17
2023-03-16T12:22:17.380Z,2.50
2023-03-16T12:24:47.200Z,2.72
2023-03-16T12:27:18.226Z,2.60
2023-03-16T12:30:09.858Z,2.78
2023-03-16T12:33:00.856Z,2.45
2023-03-16T12:35:44.262Z,2.83
2023-03-16T12:38:23.192Z,3.10
2023-03-16T12:41:05.999Z,2.60
2023-03-16T12:43:51.575Z,2.47
2023-03-16T12:46:27.790Z,2.40
2023-03-16T12:49:02.926Z,2.60
2023-03-16T12:51:37.698Z,2.80
2023-03-16T12:54:07.716Z,2.97
2023-03-16T12:56:43.421Z,1.95
2023-03-16T12:59:18.584Z,2.55
2023-03-16T13:01:51.170Z,2.70
2023-03-16T13:04:31.043Z,2.17
2023-03-16T13:07:16.473Z,2.40
2023-03-16T13:09:57.427Z,2.70
2023-03-16T13:12:32.682Z,2.58
2023-03-16T13:15:00.516Z,2.97
2023-03-16T13:17:33.465Z,2.47
2023-03-16T13:20:30.775Z,3.00
2023-03-16T13:23:09.735Z,2.72
2023-03-16T13:25:43.599Z,2.10
2023-03-16T13:30:49.068Z,2.40
2023-03-16T13:33:21.930Z,2.60
2023-03-16T13:35:52.517Z,2.55
2023-03-16T13:38:27.634Z,2.40
2023-03-16T13:41:04.723Z,2.78
2023-03-16T13:43:35.924Z,2.60
2023-03-16T13:46:14.962Z,1.92
2023-03-16T13:48:43.532Z,2.92
2023-03-16T13:51:17.846Z,2.63
2023-03-16T13:53:45.616Z,2.58
2023-03-16T13:56:19.627Z,2.65
2023-03-16T13:58:50.331Z,2.83
2023-03-16T14:01:32.360Z,3.25
2023-03-16T14:04:08.901Z,2.83
2023-03-16T14:06:36.923Z,3.22
2023-03-16T14:09:17.625Z,3.20
2023-03-16T14:11:48.745Z,3.00
2023-03-16T14:14:37.625Z,3.30
2023-03-16T14:17:16.617Z,3.25
2023-03-16T14:19:50.632Z,3.60
2023-03-16T14:22:25.476Z,3.33
2023-03-16T14:24:59.234Z,3.45
2023-03-16T14:27:40.127Z,3.53
2023-03-16T14:30:27.865Z,3.55
2023-03-16T14:33:08.976Z,3.75
2023-03-16T14:35:44.230Z,3.28
2023-03-16T14:38:22.459Z,3.60
2023-03-16T14:41:12.903Z,3.85
2023-03-16T14:43:48.123Z,3.40
2023-03-16T14:46:22.442Z,3.20
2023-03-16T14:48:50.731Z,3.50
2023-03-16T14:51:18.239Z,4.07
2023-03-16T14:53:45.730Z,3.30
2023-03-16T14:56:14.593Z,4.50
2023-03-16T14:58:42.170Z,3.83
2023-03-16T15:01:18.226Z,4.70
2023-03-16T15:03:46.707Z,4.75
2023-03-16T15:06:14.280Z,4.88
2023-03-16T15:08:45.912Z,4.93
2023-03-16T15:11:13.871Z,6.07
2023-03-16T15:13:41.288Z,5.38
2023-03-16T15:16:14.246Z,5.03
2023-03-16T15:18:42.811Z,5.05
2023-03-16T15:21:19.047Z,5.13
2023-03-16T15:23:47.441Z,4.50
2023-03-16T15:26:17.809Z,4.30
2023-03-16T15:28:45.336Z,4.70
2023-03-16T15:31:14.646Z,4.78
2023-03-16T15:33:42.398Z,4.57
2023-03-16T15:36:19.416Z,4.88
2023-03-16T15:38:49.338Z,4.97
2023-03-16T15:41:17.442Z,4.10
2023-03-16T15:43:45.988Z,4.38
2023-03-16T15:46:13.973Z,3.70
2023-03-16T15:48:41.523Z,3.80
2023-03-16T15:51:16.240Z,3.78
2023-03-16T15:54:08.687Z,4.50
2023-03-16T15:56:53.327Z,4.05
2023-03-16T15:59:23.767Z,4.15
2023-03-16T16:01:51.900Z,3.97
2023-03-16T16:04:22.838Z,5.10
2023-03-16T16:06:55.276Z,4.03
2023-03-16T16:09:23.148Z,4.32
2023-03-16T16:11:51.570Z,4.03
2023-03-16T16:14:25.492Z,4.15
2023-03-16T16:16:54.582Z,4.70
2023-03-16T16:19:22.099Z,4.63
2023-03-16T16:21:49.562Z,4.25
2023-03-16T16:24:18.599Z,4.47
2023-03-16T16:26:55.660Z,4.40
2023-03-16T16:29:26.849Z,4.47
2023-03-16T16:31:55.488Z,4.38
2023-03-16T16:34:27.433Z,4.00
2023-03-16T16:36:56.320Z,4.18
2023-03-16T16:39:24.868Z,3.85
2023-03-16T16:41:55.098Z,4.43
2023-03-16T16:44:27.486Z,5.32
2023-03-16T16:46:55.611Z,4.20
2023-03-16T16:49:28.510Z,4.32
2023-03-16T16:51:56.664Z,4.07
2023-03-16T16:54:27.572Z,4.07
2023-03-16T16:56:57.337Z,3.88
2023-03-16T16:59:33.480Z,3.92
2023-03-16T17:02:03.350Z,4.53
2023-03-16T17:04:30.927Z,4.40
2023-03-16T17:07:02.300Z,3.55
2023-03-16T17:09:30.448Z,3.80
2023-03-16T17:11:59.545Z,3.90
2023-03-16T17:14:31.644Z,3.85
2023-03-16T17:17:05.794Z,3.45
2023-03-16T17:19:33.479Z,4.00
2023-03-16T17:22:01.621Z,4.30
2023-03-16T17:24:29.810Z,3.63
2023-03-16T17:27:00.823Z,4.32
2023-03-16T17:29:32.955Z,4.00
2023-03-16T17:32:03.030Z,4.00
2023-03-16T17:34:34.112Z,3.92
2023-03-16T17:37:02.381Z,4.30
2023-03-16T17:39:32.740Z,4.60
2023-03-16T17:42:18.630Z,5.40
2023-03-16T17:44:49.080Z,4.05
2023-03-16T17:47:20.348Z,4.38
2023-03-16T17:49:49.142Z,4.72
2023-03-16T17:52:19.679Z,4.50
2023-03-16T17:54:48.431Z,5.20
2023-03-16T17:57:18.327Z,4.40
2023-03-16T17:59:47.001Z,5.55
2023-03-16T18:02:26.708Z,4.70
2023-03-16T18:04:54.295Z,4.40
2023-03-16T18:07:21.738Z,4.55
2023-03-16T18:09:49.359Z,4.78
2023-03-16T18:12:16.842Z,5.00
2023-03-16T18:14:44.378Z,4.40
2023-03-16T18:17:30.329Z,4.05
2023-03-16T18:19:59.186Z,3.63
2023-03-16T18:22:28.020Z,3.63
2023-03-16T18:24:55.882Z,3.72
2023-03-16T18:27:24.503Z,4.00
2023-03-16T18:29:52.037Z,4.32
2023-03-16T18:32:30.463Z,3.67
2023-03-16T18:34:58.578Z,4.43
2023-03-16T18:37:30.544Z,4.40
2023-03-16T18:39:58.247Z,3.50
2023-03-16T18:42:29.379Z,4.38
2023-03-16T18:44:57.315Z,3.90
2023-03-16T18:47:31.482Z,4.32
2023-03-16T18:49:59.661Z,3.65
2023-03-16T18:52:29.280Z,4.18
2023-03-16T18:54:58.311Z,4.80
2023-03-16T18:57:28.544Z,3.75
2023-03-16T18:59:56.339Z,3.97
2023-03-16T19:02:30.261Z,4.43
2023-03-16T19:05:00.660Z,4.30
2023-03-16T19:07:35.197Z,4.00
2023-03-16T19:10:08.867Z,3.97
2023-03-16T19:12:36.476Z,3.97
2023-03-16T19:15:36.700Z,3.72
2023-03-16T19:18:04.314Z,4.40
2023-03-16T19:20:33.398Z,3.40
2023-03-16T19:23:21.964Z,3.92
2023-03-16T19:25:50.858Z,4.00
2023-03-16T19:28:39.138Z,3.83
2023-03-16T19:31:19.368Z,3.67
2023-03-16T19:33:48.145Z,3.72
2023-03-16T19:36:19.127Z,3.75
2023-03-16T19:38:50.471Z,4.10
2023-03-16T19:41:28.030Z,3.97
2023-03-16T19:44:04.194Z,4.10
2023-03-16T19:46:32.017Z,3.72
2023-03-16T19:48:59.464Z,3.75
2023-03-16T19:51:29.249Z,3.90
2023-03-16T19:53:56.924Z,3.88
2023-03-16T19:56:26.736Z,4.30
2023-03-16T19:58:55.704Z,3.63
2023-03-16T20:01:33.114Z,3.38
2023-03-16T20:04:01.697Z,3.92
2023-03-16T20:06:29.268Z,3.83
2023-03-16T20:08:56.788Z,3.70
2023-03-16T20:11:32.278Z,3.60
2023-03-16T20:14:00.891Z,3.80
2023-03-16T20:16:31.615Z,3.58
2023-03-16T20:19:03.102Z,3.47
2023-03-16T20:21:30.792Z,3.70
2023-03-16T20:23:58.206Z,3.75
2023-03-16T20:26:32.345Z,3.78
2023-03-16T20:29:01.031Z,3.50
2023-03-16T20:31:31.554Z,4.30
2023-03-16T20:33:59.214Z,3.70
2023-03-16T20:36:27.307Z,3.30
2023-03-16T20:38:55.241Z,4.07
2023-03-16T20:41:26.792Z,4.20
2023-03-16T20:43:56.545Z,3.85
2023-03-16T20:46:27.523Z,3.83
2023-03-16T20:48:55.750Z,3.90
2023-03-16T20:51:23.624Z,4.75
2023-03-16T20:53:51.486Z,4.03
2023-03-16T20:56:22.240Z,4.93
2023-03-16T20:58:51.678Z,3.97
2023-03-16T21:01:21.358Z,4.38
2023-03-16T21:03:55.615Z,4.90
2023-03-16T21:06:27.693Z,4.50
2023-03-16T21:08:57.178Z,4.40
2023-03-16T21:11:38.866Z,4.80
2023-03-16T21:14:11.850Z,4.68
2023-03-16T21:16:40.575Z,4.80
2023-03-16T21:19:16.316Z,5.13
2023-03-16T21:21:44.114Z,4.70
2023-03-16T21:24:11.851Z,5.45
2023-03-16T21:26:42.035Z,5.38
2023-03-16T21:29:21.365Z,6.00
2023-03-16T21:31:49.240Z,5.70
2023-03-16T21:34:26.129Z,6.10
2023-03-16T21:36:53.720Z,5.38
2023-03-16T21:39:25.087Z,5.43
2023-03-16T21:41:53.715Z,5.50
2023-03-16T21:44:21.359Z,5.28
2023-03-16T21:46:48.992Z,5.45
2023-03-16T21:49:16.567Z,5.80
2023-03-16T21:51:44.114Z,6.13
2023-03-16T21:54:15.533Z,5.32
2023-03-16T21:56:43.965Z,6.03
2023-03-16T21:59:11.850Z,5.40
2023-03-16T22:01:54.381Z,5.50
2023-03-16T22:04:26.171Z,5.22
2023-03-16T22:06:53.609Z,5.60
2023-03-16T22:09:22.806Z,5.78
2023-03-16T22:11:50.985Z,6.63
2023-03-16T22:14:18.481Z,5.95
2023-03-16T22:16:46.120Z,5.78
2023-03-16T22:19:18.191Z,5.93
2023-03-16T22:21:47.406Z,6.45
2023-03-16T22:24:21.110Z,5.70
2023-03-16T22:29:31.014Z,6.10
2023-03-16T22:32:04.368Z,6.00
2023-03-16T22:34:53.642Z,5.90
2023-03-16T22:37:24.352Z,5.88
2023-03-16T22:39:53.085Z,6.30
2023-03-16T22:42:37.568Z,6.32
2023-03-16T22:45:22.296Z,6.00
2023-03-16T22:47:50.318Z,5.53
2023-03-16T22:50:20.296Z,5.82
2023-03-16T22:52:50.444Z,6.28
2023-03-16T22:55:24.798Z,6.03
2023-03-16T22:58:00.862Z,5.53
2023-03-16T23:00:29.076Z,6.32
2023-03-16T23:02:57.652Z,6.10
2023-03-16T23:05:29.434Z,5.75
2023-03-16T23:08:01.096Z,5.55
2023-03-16T23:10:29.787Z,5.63
2023-03-16T23:12:59.709Z,5.80
2023-03-16T23:15:29.979Z,5.53
2023-03-16T23:17:57.926Z,6.05
2023-03-16T23:20:29.353Z,5.43
2023-03-16T23:22:57.011Z,5.25
2023-03-16T23:25:25.136Z,4.90
2023-03-16T23:27:53.015Z,5.30
2023-03-16T23:30:26.122Z,4.93
2023-03-16T23:32:55.704Z,4.47
2023-03-16T23:35:28.891Z,5.28
2023-03-16T23:37:57.052Z,4.63
2023-03-16T23:40:28.218Z,4.88
2023-03-16T23:42:58.390Z,4.63
2023-03-16T23:45:32.381Z,5.15
2023-03-16T23:48:02.936Z,4.78
2023-03-16T23:50:33.526Z,4.05
2023-03-16T23:53:01.610Z,4.60
2023-03-16T23:55:29.239Z,5.05
2023-03-16T23:57:56.711Z,4.70
